Ford, Kansas
Current Conditions -  °F | °C
As of 2:52 PM on Monday 24 Nov 2014 (Local Time) from KDDC Reporting Station
Clear Clear  
Wind Chill: 52°   Ceiling: Unl
Heat Index: 52°   Visibility: 10mi
Dew Point: 13°   Wind: 23mph
Humidity: 21%   Direction: 310°NW
Pressure: 29.95"   Gusts: 31mph
Location:  37.64°N, 99.75°W
Report Text: KDDC 242052Z AUTO 31020G27KT 10SM CLR 11/M11 A2995 RMK AO2 PK WND 32028/2005 SLP144 T01111106 55001
Loading
Personal Weather Stations






























Interactive Weather Map New forecast layout! Learn more

10-Day Weather Forecast

Advertisements
Track Severe Weather on mobile